Rich's Quest For Flight

My father was a pilot. He died doing what he loved to do. It has been a goal of my life to become a pilot. Now I have chance to do so. Follow me as I pursue my dream.

Sunday, September 10, 2006

Long Cross Country, Take 2?

KRYV 101436Z AUTO 09011G17KT 10SM OVC036 15/12 A3023 RMK AO2
KSBM 101353Z AUTO 09008KT 10SM SCT034 OVC065 15/07 A3028 RMK AO2
KATW 101345Z 08008G15KT 10SM SCT040 OVC070 13/08 A3028

For those tuning in hoping to see a wonderful reverie of my fantastic flight, sorry to disappoint. The problem here is a strong high pressure system over eastern Ontario that is blocking moisture moving north from the Gulf of Mexico. A trof in this system is causing a low overcast with scattered showers that has scrubbed the day. It's not IFR conditions, and it's not marginal around the whole course, but just enough for postponement. So now I wait for another week. It's been tough. The anticipation is just like that for a big holiday or any other significant day. Thanks again for stopping by and tune in next Sunday.


Add a comment